sensor_id;sensor_type;location;lat;lon;timestamp;P1;durP1;ratioP1;P2;durP2;ratioP2
66927;SDS011;59882;45.624;11.698;2023-06-26T00:02:01;14.67;;;8.27;;
66927;SDS011;59882;45.624;11.698;2023-06-26T00:04:26;17.30;;;8.38;;
66927;SDS011;59882;45.624;11.698;2023-06-26T00:06:52;12.47;;;8.17;;
66927;SDS011;59882;45.624;11.698;2023-06-26T00:09:18;14.43;;;8.25;;
66927;SDS011;59882;45.624;11.698;2023-06-26T00:11:43;10.97;;;7.80;;
66927;SDS011;59882;45.624;11.698;2023-06-26T00:14:09;13.80;;;7.73;;
66927;SDS011;59882;45.624;11.698;2023-06-26T00:16:35;14.55;;;7.57;;
66927;SDS011;59882;45.624;11.698;2023-06-26T00:19:01;13.30;;;7.80;;
66927;SDS011;59882;45.624;11.698;2023-06-26T00:21:26;12.90;;;8.67;;
66927;SDS011;59882;45.624;11.698;2023-06-26T00:23:52;16.55;;;9.02;;
66927;SDS011;59882;45.624;11.698;2023-06-26T00:26:18;15.23;;;7.30;;
66927;SDS011;59882;45.624;11.698;2023-06-26T00:28:44;9.88;;;7.20;;
66927;SDS011;59882;45.624;11.698;2023-06-26T00:31:09;17.63;;;9.20;;
66927;SDS011;59882;45.624;11.698;2023-06-26T00:33:35;13.13;;;8.90;;
66927;SDS011;59882;45.624;11.698;2023-06-26T00:36:00;14.53;;;8.33;;
66927;SDS011;59882;45.624;11.698;2023-06-26T00:38:26;11.50;;;8.30;;
66927;SDS011;59882;45.624;11.698;2023-06-26T00:40:52;15.40;;;8.70;;
66927;SDS011;59882;45.624;11.698;2023-06-26T00:43:19;13.43;;;8.57;;
66927;SDS011;59882;45.624;11.698;2023-06-26T00:45:45;12.13;;;7.95;;
66927;SDS011;59882;45.624;11.698;2023-06-26T00:48:10;13.87;;;8.30;;
66927;SDS011;59882;45.624;11.698;2023-06-26T00:50:37;11.27;;;7.10;;
66927;SDS011;59882;45.624;11.698;2023-06-26T00:53:02;20.77;;;8.47;;
66927;SDS011;59882;45.624;11.698;2023-06-26T00:55:29;13.87;;;8.17;;
66927;SDS011;59882;45.624;11.698;2023-06-26T00:57:55;14.32;;;8.27;;
66927;SDS011;59882;45.624;11.698;2023-06-26T01:00:21;11.68;;;7.88;;
66927;SDS011;59882;45.624;11.698;2023-06-26T01:02:46;15.53;;;8.00;;
66927;SDS011;59882;45.624;11.698;2023-06-26T01:05:12;12.47;;;8.20;;
66927;SDS011;59882;45.624;11.698;2023-06-26T01:07:49;15.77;;;8.98;;
66927;SDS011;59882;45.624;11.698;2023-06-26T01:10:15;13.05;;;8.35;;
66927;SDS011;59882;45.624;11.698;2023-06-26T01:12:41;17.53;;;7.87;;
66927;SDS011;59882;45.624;11.698;2023-06-26T01:15:07;13.80;;;8.45;;
66927;SDS011;59882;45.624;11.698;2023-06-26T01:17:33;14.13;;;8.70;;
66927;SDS011;59882;45.624;11.698;2023-06-26T01:20:00;15.30;;;8.52;;
66927;SDS011;59882;45.624;11.698;2023-06-26T01:25:23;19.52;;;9.18;;
66927;SDS011;59882;45.624;11.698;2023-06-26T01:28:06;14.65;;;8.70;;
66927;SDS011;59882;45.624;11.698;2023-06-26T01:30:33;17.13;;;8.90;;
66927;SDS011;59882;45.624;11.698;2023-06-26T01:33:01;17.63;;;9.88;;
66927;SDS011;59882;45.624;11.698;2023-06-26T01:35:28;15.27;;;8.88;;
66927;SDS011;59882;45.624;11.698;2023-06-26T01:38:10;15.50;;;8.63;;
66927;SDS011;59882;45.624;11.698;2023-06-26T01:40:41;14.02;;;9.77;;
66927;SDS011;59882;45.624;11.698;2023-06-26T01:43:09;15.33;;;9.60;;
66927;SDS011;59882;45.624;11.698;2023-06-26T01:45:54;15.50;;;8.73;;
66927;SDS011;59882;45.624;11.698;2023-06-26T01:48:26;13.48;;;9.45;;
66927;SDS011;59882;45.624;11.698;2023-06-26T01:50:55;13.32;;;8.65;;
66927;SDS011;59882;45.624;11.698;2023-06-26T01:53:24;12.43;;;8.18;;
66927;SDS011;59882;45.624;11.698;2023-06-26T01:55:55;14.23;;;8.97;;
66927;SDS011;59882;45.624;11.698;2023-06-26T01:58:27;12.30;;;8.50;;
66927;SDS011;59882;45.624;11.698;2023-06-26T02:00:53;15.38;;;9.05;;
66927;SDS011;59882;45.624;11.698;2023-06-26T02:03:19;13.10;;;8.80;;
66927;SDS011;59882;45.624;11.698;2023-06-26T02:05:45;14.60;;;9.33;;
66927;SDS011;59882;45.624;11.698;2023-06-26T02:08:14;14.18;;;8.93;;
66927;SDS011;59882;45.624;11.698;2023-06-26T02:10:40;13.88;;;8.45;;
66927;SDS011;59882;45.624;11.698;2023-06-26T02:13:05;12.67;;;8.70;;
66927;SDS011;59882;45.624;11.698;2023-06-26T02:15:31;15.32;;;8.23;;
66927;SDS011;59882;45.624;11.698;2023-06-26T02:17:57;17.67;;;8.30;;
66927;SDS011;59882;45.624;11.698;2023-06-26T02:20:22;9.97;;;7.93;;
66927;SDS011;59882;45.624;11.698;2023-06-26T02:22:48;12.68;;;7.75;;
66927;SDS011;59882;45.624;11.698;2023-06-26T02:25:13;12.13;;;7.33;;
66927;SDS011;59882;45.624;11.698;2023-06-26T02:27:40;10.35;;;7.25;;
66927;SDS011;59882;45.624;11.698;2023-06-26T02:30:07;12.75;;;7.72;;
66927;SDS011;59882;45.624;11.698;2023-06-26T02:32:34;10.93;;;8.10;;
66927;SDS011;59882;45.624;11.698;2023-06-26T02:34:59;13.17;;;8.60;;
66927;SDS011;59882;45.624;11.698;2023-06-26T02:37:25;11.80;;;8.32;;
66927;SDS011;59882;45.624;11.698;2023-06-26T02:39:51;14.23;;;8.40;;
66927;SDS011;59882;45.624;11.698;2023-06-26T02:42:16;15.80;;;8.70;;
66927;SDS011;59882;45.624;11.698;2023-06-26T02:44:42;14.50;;;7.97;;
66927;SDS011;59882;45.624;11.698;2023-06-26T02:47:07;12.47;;;7.10;;
66927;SDS011;59882;45.624;11.698;2023-06-26T02:49:33;11.40;;;6.53;;
66927;SDS011;59882;45.624;11.698;2023-06-26T02:51:58;13.73;;;6.83;;
66927;SDS011;59882;45.624;11.698;2023-06-26T02:54:24;9.33;;;6.73;;
66927;SDS011;59882;45.624;11.698;2023-06-26T02:56:50;13.55;;;6.10;;
66927;SDS011;59882;45.624;11.698;2023-06-26T02:59:15;12.23;;;6.77;;
66927;SDS011;59882;45.624;11.698;2023-06-26T03:01:41;8.70;;;6.75;;
66927;SDS011;59882;45.624;11.698;2023-06-26T03:04:06;9.63;;;6.33;;
66927;SDS011;59882;45.624;11.698;2023-06-26T03:06:33;11.93;;;5.82;;
66927;SDS011;59882;45.624;11.698;2023-06-26T03:08:58;10.57;;;5.93;;
66927;SDS011;59882;45.624;11.698;2023-06-26T03:11:24;10.02;;;6.15;;
66927;SDS011;59882;45.624;11.698;2023-06-26T03:13:49;11.17;;;6.47;;
66927;SDS011;59882;45.624;11.698;2023-06-26T03:16:15;13.43;;;6.13;;
66927;SDS011;59882;45.624;11.698;2023-06-26T03:18:41;12.95;;;6.60;;
66927;SDS011;59882;45.624;11.698;2023-06-26T03:21:06;15.27;;;7.17;;
66927;SDS011;59882;45.624;11.698;2023-06-26T03:23:34;21.33;;;6.90;;
66927;SDS011;59882;45.624;11.698;2023-06-26T03:25:59;14.37;;;7.00;;
66927;SDS011;59882;45.624;11.698;2023-06-26T03:28:25;13.30;;;6.63;;
66927;SDS011;59882;45.624;11.698;2023-06-26T03:30:50;9.90;;;6.13;;
66927;SDS011;59882;45.624;11.698;2023-06-26T03:33:16;13.30;;;6.40;;
66927;SDS011;59882;45.624;11.698;2023-06-26T03:35:42;8.00;;;5.90;;
66927;SDS011;59882;45.624;11.698;2023-06-26T03:38:07;10.27;;;6.23;;
66927;SDS011;59882;45.624;11.698;2023-06-26T03:40:33;14.70;;;6.30;;
66927;SDS011;59882;45.624;11.698;2023-06-26T03:42:59;13.97;;;6.23;;
66927;SDS011;59882;45.624;11.698;2023-06-26T03:45:24;10.43;;;6.18;;
66927;SDS011;59882;45.624;11.698;2023-06-26T03:47:50;11.07;;;5.63;;
66927;SDS011;59882;45.624;11.698;2023-06-26T03:50:16;13.10;;;5.82;;
66927;SDS011;59882;45.624;11.698;2023-06-26T03:52:41;10.13;;;6.30;;
66927;SDS011;59882;45.624;11.698;2023-06-26T03:55:07;9.57;;;5.90;;
66927;SDS011;59882;45.624;11.698;2023-06-26T03:57:33;10.77;;;5.78;;
66927;SDS011;59882;45.624;11.698;2023-06-26T03:59:59;9.63;;;5.60;;
66927;SDS011;59882;45.624;11.698;2023-06-26T04:02:24;10.93;;;6.07;;
66927;SDS011;59882;45.624;11.698;2023-06-26T04:04:50;12.88;;;6.22;;
66927;SDS011;59882;45.624;11.698;2023-06-26T04:07:17;12.35;;;6.70;;
66927;SDS011;59882;45.624;11.698;2023-06-26T04:09:44;9.87;;;6.53;;
66927;SDS011;59882;45.624;11.698;2023-06-26T04:12:09;10.15;;;7.00;;
66927;SDS011;59882;45.624;11.698;2023-06-26T04:14:35;12.07;;;7.43;;
66927;SDS011;59882;45.624;11.698;2023-06-26T04:17:00;10.40;;;6.67;;
66927;SDS011;59882;45.624;11.698;2023-06-26T04:19:29;11.37;;;7.10;;
66927;SDS011;59882;45.624;11.698;2023-06-26T04:21:55;10.45;;;6.47;;
66927;SDS011;59882;45.624;11.698;2023-06-26T04:24:21;13.57;;;6.88;;
66927;SDS011;59882;45.624;11.698;2023-06-26T04:26:47;12.33;;;7.77;;
66927;SDS011;59882;45.624;11.698;2023-06-26T04:29:12;11.38;;;7.15;;
66927;SDS011;59882;45.624;11.698;2023-06-26T04:31:38;12.23;;;8.07;;
66927;SDS011;59882;45.624;11.698;2023-06-26T04:34:04;13.27;;;7.87;;
66927;SDS011;59882;45.624;11.698;2023-06-26T04:36:30;19.10;;;10.63;;
66927;SDS011;59882;45.624;11.698;2023-06-26T04:38:58;19.95;;;10.88;;
66927;SDS011;59882;45.624;11.698;2023-06-26T04:41:24;20.50;;;10.03;;
66927;SDS011;59882;45.624;11.698;2023-06-26T04:43:50;15.68;;;8.63;;
66927;SDS011;59882;45.624;11.698;2023-06-26T04:46:16;13.97;;;8.00;;
66927;SDS011;59882;45.624;11.698;2023-06-26T04:48:41;16.05;;;7.88;;
66927;SDS011;59882;45.624;11.698;2023-06-26T04:51:09;18.17;;;7.63;;
66927;SDS011;59882;45.624;11.698;2023-06-26T04:53:35;13.80;;;7.07;;
66927;SDS011;59882;45.624;11.698;2023-06-26T04:56:01;17.47;;;7.97;;
66927;SDS011;59882;45.624;11.698;2023-06-26T04:58:26;12.80;;;6.53;;
66927;SDS011;59882;45.624;11.698;2023-06-26T05:00:52;13.55;;;6.85;;
66927;SDS011;59882;45.624;11.698;2023-06-26T05:03:17;12.50;;;6.20;;
66927;SDS011;59882;45.624;11.698;2023-06-26T05:05:43;15.40;;;6.93;;
66927;SDS011;59882;45.624;11.698;2023-06-26T05:08:13;15.80;;;6.97;;
66927;SDS011;59882;45.624;11.698;2023-06-26T05:10:40;12.13;;;6.28;;
66927;SDS011;59882;45.624;11.698;2023-06-26T05:13:06;14.38;;;6.25;;
66927;SDS011;59882;45.624;11.698;2023-06-26T05:15:31;10.40;;;6.43;;
66927;SDS011;59882;45.624;11.698;2023-06-26T05:17:57;10.65;;;6.40;;
66927;SDS011;59882;45.624;11.698;2023-06-26T05:20:22;11.20;;;6.17;;
66927;SDS011;59882;45.624;11.698;2023-06-26T05:22:48;12.03;;;6.33;;
66927;SDS011;59882;45.624;11.698;2023-06-26T05:25:14;13.27;;;6.38;;
66927;SDS011;59882;45.624;11.698;2023-06-26T05:27:41;12.48;;;6.70;;
66927;SDS011;59882;45.624;11.698;2023-06-26T05:30:07;18.08;;;6.00;;
66927;SDS011;59882;45.624;11.698;2023-06-26T05:32:34;11.93;;;6.23;;
66927;SDS011;59882;45.624;11.698;2023-06-26T05:35:01;12.85;;;6.55;;
66927;SDS011;59882;45.624;11.698;2023-06-26T05:37:28;13.02;;;6.13;;
66927;SDS011;59882;45.624;11.698;2023-06-26T05:39:55;11.60;;;6.10;;
66927;SDS011;59882;45.624;11.698;2023-06-26T05:42:21;12.32;;;6.70;;
66927;SDS011;59882;45.624;11.698;2023-06-26T05:44:47;17.97;;;6.60;;
66927;SDS011;59882;45.624;11.698;2023-06-26T05:47:13;9.95;;;5.53;;
66927;SDS011;59882;45.624;11.698;2023-06-26T05:49:38;13.37;;;5.53;;
66927;SDS011;59882;45.624;11.698;2023-06-26T05:52:04;9.97;;;5.43;;
66927;SDS011;59882;45.624;11.698;2023-06-26T05:54:30;10.02;;;4.97;;
66927;SDS011;59882;45.624;11.698;2023-06-26T05:56:57;9.70;;;5.20;;
66927;SDS011;59882;45.624;11.698;2023-06-26T05:59:26;14.45;;;5.95;;
66927;SDS011;59882;45.624;11.698;2023-06-26T06:01:52;10.80;;;5.60;;
66927;SDS011;59882;45.624;11.698;2023-06-26T06:04:18;11.43;;;5.63;;
66927;SDS011;59882;45.624;11.698;2023-06-26T06:06:44;16.92;;;5.88;;
66927;SDS011;59882;45.624;11.698;2023-06-26T06:09:10;10.57;;;5.37;;
66927;SDS011;59882;45.624;11.698;2023-06-26T06:11:35;12.47;;;6.20;;
66927;SDS011;59882;45.624;11.698;2023-06-26T06:14:02;14.13;;;5.73;;
66927;SDS011;59882;45.624;11.698;2023-06-26T06:16:27;10.32;;;5.85;;
66927;SDS011;59882;45.624;11.698;2023-06-26T06:18:54;9.63;;;5.60;;
66927;SDS011;59882;45.624;11.698;2023-06-26T06:21:20;8.20;;;5.13;;
66927;SDS011;59882;45.624;11.698;2023-06-26T06:23:46;9.80;;;5.85;;
66927;SDS011;59882;45.624;11.698;2023-06-26T06:26:11;8.93;;;5.43;;
66927;SDS011;59882;45.624;11.698;2023-06-26T06:28:38;8.17;;;4.90;;
66927;SDS011;59882;45.624;11.698;2023-06-26T06:31:04;10.93;;;5.55;;
66927;SDS011;59882;45.624;11.698;2023-06-26T06:33:29;11.90;;;5.87;;
66927;SDS011;59882;45.624;11.698;2023-06-26T06:35:55;9.02;;;5.72;;
66927;SDS011;59882;45.624;11.698;2023-06-26T06:38:20;12.57;;;5.80;;
66927;SDS011;59882;45.624;11.698;2023-06-26T06:40:46;9.82;;;5.90;;
66927;SDS011;59882;45.624;11.698;2023-06-26T06:43:12;9.03;;;5.73;;
66927;SDS011;59882;45.624;11.698;2023-06-26T06:45:37;12.67;;;6.30;;
66927;SDS011;59882;45.624;11.698;2023-06-26T06:48:03;13.90;;;6.60;;
66927;SDS011;59882;45.624;11.698;2023-06-26T06:50:29;11.23;;;6.93;;
66927;SDS011;59882;45.624;11.698;2023-06-26T06:52:55;10.07;;;6.53;;
66927;SDS011;59882;45.624;11.698;2023-06-26T06:55:20;11.43;;;7.00;;
66927;SDS011;59882;45.624;11.698;2023-06-26T06:57:46;11.07;;;6.60;;
66927;SDS011;59882;45.624;11.698;2023-06-26T07:00:12;12.60;;;7.27;;
66927;SDS011;59882;45.624;11.698;2023-06-26T07:02:42;10.27;;;7.32;;
66927;SDS011;59882;45.624;11.698;2023-06-26T07:05:09;11.43;;;7.13;;
66927;SDS011;59882;45.624;11.698;2023-06-26T07:07:35;10.07;;;7.40;;
66927;SDS011;59882;45.624;11.698;2023-06-26T07:10:05;10.10;;;7.00;;
66927;SDS011;59882;45.624;11.698;2023-06-26T07:12:33;10.35;;;6.63;;
66927;SDS011;59882;45.624;11.698;2023-06-26T07:15:00;10.23;;;7.10;;
66927;SDS011;59882;45.624;11.698;2023-06-26T07:17:29;8.85;;;6.53;;
66927;SDS011;59882;45.624;11.698;2023-06-26T07:19:56;10.80;;;7.27;;
66927;SDS011;59882;45.624;11.698;2023-06-26T07:22:22;10.07;;;7.18;;
66927;SDS011;59882;45.624;11.698;2023-06-26T07:24:48;12.00;;;6.97;;
66927;SDS011;59882;45.624;11.698;2023-06-26T07:27:14;12.53;;;7.83;;
66927;SDS011;59882;45.624;11.698;2023-06-26T07:29:41;10.32;;;7.22;;
66927;SDS011;59882;45.624;11.698;2023-06-26T07:32:07;9.90;;;6.63;;
66927;SDS011;59882;45.624;11.698;2023-06-26T07:34:33;10.53;;;7.00;;
66927;SDS011;59882;45.624;11.698;2023-06-26T07:36:58;10.27;;;7.20;;
66927;SDS011;59882;45.624;11.698;2023-06-26T07:39:24;9.85;;;6.97;;
66927;SDS011;59882;45.624;11.698;2023-06-26T07:41:50;12.70;;;7.67;;
66927;SDS011;59882;45.624;11.698;2023-06-26T07:44:16;12.63;;;7.50;;
66927;SDS011;59882;45.624;11.698;2023-06-26T07:46:41;12.67;;;7.60;;
66927;SDS011;59882;45.624;11.698;2023-06-26T07:49:07;10.05;;;7.05;;
66927;SDS011;59882;45.624;11.698;2023-06-26T07:51:32;17.27;;;7.23;;
66927;SDS011;59882;45.624;11.698;2023-06-26T07:53:58;14.60;;;7.40;;
66927;SDS011;59882;45.624;11.698;2023-06-26T07:56:25;11.93;;;7.30;;
66927;SDS011;59882;45.624;11.698;2023-06-26T07:58:50;12.40;;;7.37;;
66927;SDS011;59882;45.624;11.698;2023-06-26T08:01:16;16.33;;;7.97;;
66927;SDS011;59882;45.624;11.698;2023-06-26T08:03:42;11.20;;;7.30;;
66927;SDS011;59882;45.624;11.698;2023-06-26T08:06:07;12.57;;;8.70;;
66927;SDS011;59882;45.624;11.698;2023-06-26T08:08:33;15.43;;;7.93;;
66927;SDS011;59882;45.624;11.698;2023-06-26T08:10:59;14.32;;;9.13;;
66927;SDS011;59882;45.624;11.698;2023-06-26T08:13:24;13.07;;;8.07;;
66927;SDS011;59882;45.624;11.698;2023-06-26T08:15:50;10.40;;;7.72;;
66927;SDS011;59882;45.624;11.698;2023-06-26T08:18:16;13.50;;;8.53;;
66927;SDS011;59882;45.624;11.698;2023-06-26T08:20:42;17.13;;;9.05;;
66927;SDS011;59882;45.624;11.698;2023-06-26T08:23:08;11.47;;;8.43;;
66927;SDS011;59882;45.624;11.698;2023-06-26T08:25:33;12.53;;;8.70;;
66927;SDS011;59882;45.624;11.698;2023-06-26T08:27:59;16.17;;;8.60;;
66927;SDS011;59882;45.624;11.698;2023-06-26T08:30:25;11.52;;;8.60;;
66927;SDS011;59882;45.624;11.698;2023-06-26T08:32:53;10.95;;;7.78;;
66927;SDS011;59882;45.624;11.698;2023-06-26T08:35:20;11.75;;;8.30;;
66927;SDS011;59882;45.624;11.698;2023-06-26T08:37:45;10.20;;;7.47;;
66927;SDS011;59882;45.624;11.698;2023-06-26T08:40:11;8.93;;;6.60;;
66927;SDS011;59882;45.624;11.698;2023-06-26T08:42:39;10.68;;;7.28;;
66927;SDS011;59882;45.624;11.698;2023-06-26T08:45:05;9.68;;;6.75;;
66927;SDS011;59882;45.624;11.698;2023-06-26T08:47:31;9.67;;;6.77;;
66927;SDS011;59882;45.624;11.698;2023-06-26T08:50:12;10.50;;;7.45;;
66927;SDS011;59882;45.624;11.698;2023-06-26T08:52:52;10.68;;;6.97;;
66927;SDS011;59882;45.624;11.698;2023-06-26T08:55:22;11.45;;;8.40;;
66927;SDS011;59882;45.624;11.698;2023-06-26T08:57:51;10.05;;;7.30;;
66927;SDS011;59882;45.624;11.698;2023-06-26T09:00:18;10.10;;;6.97;;
66927;SDS011;59882;45.624;11.698;2023-06-26T09:02:44;13.60;;;7.10;;
66927;SDS011;59882;45.624;11.698;2023-06-26T09:05:10;12.48;;;8.00;;
66927;SDS011;59882;45.624;11.698;2023-06-26T09:07:36;11.88;;;6.95;;
66927;SDS011;59882;45.624;11.698;2023-06-26T09:10:02;16.93;;;7.33;;
66927;SDS011;59882;45.624;11.698;2023-06-26T09:12:27;10.10;;;6.75;;
66927;SDS011;59882;45.624;11.698;2023-06-26T09:14:54;11.80;;;7.27;;
66927;SDS011;59882;45.624;11.698;2023-06-26T09:17:24;12.98;;;8.20;;
66927;SDS011;59882;45.624;11.698;2023-06-26T09:19:54;16.75;;;7.72;;
66927;SDS011;59882;45.624;11.698;2023-06-26T09:22:19;9.47;;;7.10;;
66927;SDS011;59882;45.624;11.698;2023-06-26T09:24:45;13.70;;;7.47;;
66927;SDS011;59882;45.624;11.698;2023-06-26T09:27:11;9.93;;;7.40;;
66927;SDS011;59882;45.624;11.698;2023-06-26T09:29:36;10.27;;;6.70;;
66927;SDS011;59882;45.624;11.698;2023-06-26T09:32:02;15.68;;;7.60;;
66927;SDS011;59882;45.624;11.698;2023-06-26T09:34:32;10.90;;;6.77;;
66927;SDS011;59882;45.624;11.698;2023-06-26T09:36:58;12.52;;;8.25;;
66927;SDS011;59882;45.624;11.698;2023-06-26T09:39:29;15.18;;;8.57;;
66927;SDS011;59882;45.624;11.698;2023-06-26T09:41:56;14.15;;;8.70;;
66927;SDS011;59882;45.624;11.698;2023-06-26T09:44:22;13.00;;;8.10;;
66927;SDS011;59882;45.624;11.698;2023-06-26T09:46:48;11.52;;;8.10;;
66927;SDS011;59882;45.624;11.698;2023-06-26T09:49:14;12.40;;;8.48;;
66927;SDS011;59882;45.624;11.698;2023-06-26T09:51:41;15.45;;;7.32;;
66927;SDS011;59882;45.624;11.698;2023-06-26T09:54:07;10.33;;;7.07;;
66927;SDS011;59882;45.624;11.698;2023-06-26T09:56:34;13.77;;;8.07;;
66927;SDS011;59882;45.624;11.698;2023-06-26T09:59:00;11.65;;;7.55;;
66927;SDS011;59882;45.624;11.698;2023-06-26T10:01:28;11.15;;;7.68;;
66927;SDS011;59882;45.624;11.698;2023-06-26T10:03:54;12.13;;;7.78;;
66927;SDS011;59882;45.624;11.698;2023-06-26T10:08:54;12.38;;;7.93;;
66927;SDS011;59882;45.624;11.698;2023-06-26T10:11:21;11.88;;;8.65;;
66927;SDS011;59882;45.624;11.698;2023-06-26T10:13:50;10.50;;;7.78;;
66927;SDS011;59882;45.624;11.698;2023-06-26T10:16:26;8.85;;;6.47;;
66927;SDS011;59882;45.624;11.698;2023-06-26T10:18:54;7.83;;;5.97;;
66927;SDS011;59882;45.624;11.698;2023-06-26T10:21:24;10.70;;;7.75;;
66927;SDS011;59882;45.624;11.698;2023-06-26T10:23:52;9.43;;;6.20;;
66927;SDS011;59882;45.624;11.698;2023-06-26T10:26:20;8.75;;;5.65;;
66927;SDS011;59882;45.624;11.698;2023-06-26T10:28:47;7.20;;;5.22;;
66927;SDS011;59882;45.624;11.698;2023-06-26T10:31:17;7.50;;;5.77;;
66927;SDS011;59882;45.624;11.698;2023-06-26T10:33:44;10.75;;;5.47;;
66927;SDS011;59882;45.624;11.698;2023-06-26T10:36:17;7.80;;;6.20;;
66927;SDS011;59882;45.624;11.698;2023-06-26T10:38:48;9.35;;;6.35;;
66927;SDS011;59882;45.624;11.698;2023-06-26T10:41:21;9.27;;;6.05;;
66927;SDS011;59882;45.624;11.698;2023-06-26T10:43:50;10.83;;;6.33;;
66927;SDS011;59882;45.624;11.698;2023-06-26T10:46:48;9.80;;;6.80;;
66927;SDS011;59882;45.624;11.698;2023-06-26T10:49:21;10.27;;;6.97;;
66927;SDS011;59882;45.624;11.698;2023-06-26T10:51:56;12.73;;;6.97;;
66927;SDS011;59882;45.624;11.698;2023-06-26T10:54:28;10.32;;;6.53;;
66927;SDS011;59882;45.624;11.698;2023-06-26T10:56:55;13.37;;;6.63;;
66927;SDS011;59882;45.624;11.698;2023-06-26T10:59:24;10.95;;;7.30;;
66927;SDS011;59882;45.624;11.698;2023-06-26T11:01:54;9.70;;;7.05;;
66927;SDS011;59882;45.624;11.698;2023-06-26T11:04:35;11.25;;;7.05;;
66927;SDS011;59882;45.624;11.698;2023-06-26T11:07:23;15.88;;;7.85;;
66927;SDS011;59882;45.624;11.698;2023-06-26T11:09:56;10.73;;;6.67;;
66927;SDS011;59882;45.624;11.698;2023-06-26T11:12:36;12.15;;;7.32;;
66927;SDS011;59882;45.624;11.698;2023-06-26T11:15:16;8.65;;;5.72;;
66927;SDS011;59882;45.624;11.698;2023-06-26T11:17:43;9.07;;;5.97;;
66927;SDS011;59882;45.624;11.698;2023-06-26T11:20:11;12.70;;;7.30;;
66927;SDS011;59882;45.624;11.698;2023-06-26T11:22:39;11.63;;;6.53;;
66927;SDS011;59882;45.624;11.698;2023-06-26T11:25:06;10.93;;;7.05;;
66927;SDS011;59882;45.624;11.698;2023-06-26T11:30:06;11.18;;;6.93;;
66927;SDS011;59882;45.624;11.698;2023-06-26T11:32:32;8.43;;;6.72;;
66927;SDS011;59882;45.624;11.698;2023-06-26T11:34:58;10.80;;;6.57;;
66927;SDS011;59882;45.624;11.698;2023-06-26T11:37:25;13.40;;;7.15;;
66927;SDS011;59882;45.624;11.698;2023-06-26T11:39:50;8.23;;;6.32;;
66927;SDS011;59882;45.624;11.698;2023-06-26T11:42:17;11.93;;;7.03;;
66927;SDS011;59882;45.624;11.698;2023-06-26T11:44:43;10.02;;;7.45;;
66927;SDS011;59882;45.624;11.698;2023-06-26T11:47:18;9.60;;;7.18;;
66927;SDS011;59882;45.624;11.698;2023-06-26T11:49:46;12.73;;;7.45;;
66927;SDS011;59882;45.624;11.698;2023-06-26T11:52:14;8.63;;;6.50;;
66927;SDS011;59882;45.624;11.698;2023-06-26T11:54:41;9.63;;;7.05;;
66927;SDS011;59882;45.624;11.698;2023-06-26T11:57:07;11.25;;;6.43;;
66927;SDS011;59882;45.624;11.698;2023-06-26T11:59:39;10.98;;;6.80;;
66927;SDS011;59882;45.624;11.698;2023-06-26T12:02:13;11.20;;;7.07;;
66927;SDS011;59882;45.624;11.698;2023-06-26T12:04:42;9.60;;;6.70;;
66927;SDS011;59882;45.624;11.698;2023-06-26T12:07:09;8.95;;;7.13;;
66927;SDS011;59882;45.624;11.698;2023-06-26T12:09:42;10.68;;;6.75;;
66927;SDS011;59882;45.624;11.698;2023-06-26T12:12:10;12.98;;;6.93;;
66927;SDS011;59882;45.624;11.698;2023-06-26T12:14:38;10.05;;;6.95;;
66927;SDS011;59882;45.624;11.698;2023-06-26T12:17:09;10.93;;;7.73;;
66927;SDS011;59882;45.624;11.698;2023-06-26T12:19:42;9.65;;;6.70;;
66927;SDS011;59882;45.624;11.698;2023-06-26T12:22:09;11.35;;;6.63;;
66927;SDS011;59882;45.624;11.698;2023-06-26T12:24:37;10.55;;;6.57;;
66927;SDS011;59882;45.624;11.698;2023-06-26T12:27:07;10.70;;;6.10;;
66927;SDS011;59882;45.624;11.698;2023-06-26T12:29:34;10.07;;;6.20;;
66927;SDS011;59882;45.624;11.698;2023-06-26T12:32:01;10.23;;;6.30;;
66927;SDS011;59882;45.624;11.698;2023-06-26T12:34:28;10.50;;;5.95;;
66927;SDS011;59882;45.624;11.698;2023-06-26T12:37:01;8.23;;;6.18;;
66927;SDS011;59882;45.624;11.698;2023-06-26T12:39:29;11.37;;;6.80;;
66927;SDS011;59882;45.624;11.698;2023-06-26T12:42:09;9.82;;;6.47;;
66927;SDS011;59882;45.624;11.698;2023-06-26T12:44:42;11.27;;;6.55;;
66927;SDS011;59882;45.624;11.698;2023-06-26T12:47:08;9.57;;;6.57;;
66927;SDS011;59882;45.624;11.698;2023-06-26T12:49:36;11.53;;;6.03;;
66927;SDS011;59882;45.624;11.698;2023-06-26T12:52:05;9.45;;;6.45;;
66927;SDS011;59882;45.624;11.698;2023-06-26T12:54:32;10.88;;;6.30;;
66927;SDS011;59882;45.624;11.698;2023-06-26T12:56:59;9.32;;;5.97;;
66927;SDS011;59882;45.624;11.698;2023-06-26T12:59:24;8.37;;;6.13;;
66927;SDS011;59882;45.624;11.698;2023-06-26T13:01:50;9.25;;;5.75;;
66927;SDS011;59882;45.624;11.698;2023-06-26T13:04:16;10.77;;;5.90;;
66927;SDS011;59882;45.624;11.698;2023-06-26T13:06:42;9.20;;;6.47;;
66927;SDS011;59882;45.624;11.698;2023-06-26T13:09:07;7.30;;;5.97;;
66927;SDS011;59882;45.624;11.698;2023-06-26T13:11:33;12.15;;;6.35;;
66927;SDS011;59882;45.624;11.698;2023-06-26T13:14:01;8.98;;;6.40;;
66927;SDS011;59882;45.624;11.698;2023-06-26T13:16:26;9.32;;;6.03;;
66927;SDS011;59882;45.624;11.698;2023-06-26T13:18:52;8.87;;;5.87;;
66927;SDS011;59882;45.624;11.698;2023-06-26T13:21:17;8.85;;;6.13;;
66927;SDS011;59882;45.624;11.698;2023-06-26T13:23:43;10.23;;;6.60;;
66927;SDS011;59882;45.624;11.698;2023-06-26T13:26:09;8.77;;;6.13;;
66927;SDS011;59882;45.624;11.698;2023-06-26T13:28:35;9.88;;;6.13;;
66927;SDS011;59882;45.624;11.698;2023-06-26T13:31:02;11.17;;;6.20;;
66927;SDS011;59882;45.624;11.698;2023-06-26T13:33:28;8.68;;;6.25;;
66927;SDS011;59882;45.624;11.698;2023-06-26T13:35:53;13.15;;;6.50;;
66927;SDS011;59882;45.624;11.698;2023-06-26T13:38:20;10.77;;;6.20;;
66927;SDS011;59882;45.624;11.698;2023-06-26T13:40:49;9.10;;;5.55;;
66927;SDS011;59882;45.624;11.698;2023-06-26T13:43:20;7.18;;;6.32;;
66927;SDS011;59882;45.624;11.698;2023-06-26T13:45:47;7.03;;;5.93;;
66927;SDS011;59882;45.624;11.698;2023-06-26T13:48:13;12.27;;;6.32;;
66927;SDS011;59882;45.624;11.698;2023-06-26T13:50:39;7.57;;;5.47;;
66927;SDS011;59882;45.624;11.698;2023-06-26T13:53:04;6.68;;;5.60;;
66927;SDS011;59882;45.624;11.698;2023-06-26T13:55:30;9.13;;;6.28;;
66927;SDS011;59882;45.624;11.698;2023-06-26T13:57:57;10.38;;;6.18;;
66927;SDS011;59882;45.624;11.698;2023-06-26T14:00:24;8.50;;;5.60;;
66927;SDS011;59882;45.624;11.698;2023-06-26T14:02:50;10.18;;;6.65;;
66927;SDS011;59882;45.624;11.698;2023-06-26T14:05:16;11.38;;;6.35;;
66927;SDS011;59882;45.624;11.698;2023-06-26T14:07:43;10.33;;;6.73;;
66927;SDS011;59882;45.624;11.698;2023-06-26T14:10:09;7.10;;;6.18;;
66927;SDS011;59882;45.624;11.698;2023-06-26T14:12:35;9.52;;;6.20;;
66927;SDS011;59882;45.624;11.698;2023-06-26T14:15:02;8.93;;;6.00;;
66927;SDS011;59882;45.624;11.698;2023-06-26T14:17:28;9.17;;;5.77;;
66927;SDS011;59882;45.624;11.698;2023-06-26T14:19:54;6.68;;;5.40;;
66927;SDS011;59882;45.624;11.698;2023-06-26T14:22:20;7.82;;;5.00;;
66927;SDS011;59882;45.624;11.698;2023-06-26T14:24:45;10.47;;;5.40;;
66927;SDS011;59882;45.624;11.698;2023-06-26T14:27:11;10.73;;;5.40;;
66927;SDS011;59882;45.624;11.698;2023-06-26T14:29:37;7.57;;;5.47;;
66927;SDS011;59882;45.624;11.698;2023-06-26T14:32:03;6.00;;;5.15;;